createdAt,value
2022-08-01T00:01:58.937Z,3.97
2022-08-01T00:04:25.543Z,6.50
2022-08-01T00:06:51.966Z,6.45
2022-08-01T00:09:23.711Z,5.60
2022-08-01T00:11:59.633Z,6.38
2022-08-01T00:14:32.615Z,6.18
2022-08-01T00:17:02.595Z,4.15
2022-08-01T00:19:31.759Z,4.22
2022-08-01T00:21:58.143Z,7.30
2022-08-01T00:24:24.702Z,4.80
2022-08-01T00:26:51.097Z,4.78
2022-08-01T00:30:09.873Z,5.07
2022-08-01T00:32:04.098Z,4.78
2022-08-01T00:34:30.679Z,5.28
2022-08-01T00:36:57.048Z,5.18
2022-08-01T00:39:23.430Z,5.05
2022-08-01T00:41:49.800Z,6.95
2022-08-01T00:44:26.393Z,7.20
2022-08-01T00:46:52.787Z,4.70
2022-08-01T00:49:19.213Z,6.47
2022-08-01T00:51:45.735Z,7.93
2022-08-01T00:54:13.242Z,5.22
2022-08-01T00:56:43.089Z,4.20
2022-08-01T00:59:10.171Z,5.50
2022-08-01T01:01:39.405Z,5.15
2022-08-01T01:04:08.511Z,4.72
2022-08-01T01:06:54.073Z,4.70
2022-08-01T01:09:40.622Z,5.85
2022-08-01T01:12:13.097Z,4.47
2022-08-01T01:14:45.763Z,6.15
2022-08-01T01:17:12.542Z,7.00
2022-08-01T01:19:42.545Z,6.88
2022-08-01T01:25:18.672Z,5.22
2022-08-01T01:27:50.967Z,4.45
2022-08-01T01:30:17.617Z,6.43
2022-08-01T01:32:45.387Z,5.82
2022-08-01T01:35:24.081Z,5.47
2022-08-01T01:37:52.150Z,4.47
2022-08-01T01:40:19.116Z,5.53
2022-08-01T01:42:46.771Z,4.55
2022-08-01T01:45:13.932Z,6.28
2022-08-01T01:47:40.989Z,6.10
2022-08-01T01:50:08.685Z,5.80
2022-08-01T01:52:35.737Z,4.75
2022-08-01T01:55:03.462Z,6.53
2022-08-01T01:57:30.720Z,4.97
2022-08-01T01:59:57.982Z,5.78
2022-08-01T02:02:25.093Z,5.85
2022-08-01T02:04:53.526Z,4.47
2022-08-01T02:07:21.822Z,7.22
2022-08-01T02:09:48.672Z,5.65
2022-08-01T02:12:17.635Z,4.70
2022-08-01T02:14:45.955Z,6.30
2022-08-01T02:17:13.215Z,5.55
2022-08-01T02:19:39.956Z,5.03
2022-08-01T02:22:21.194Z,5.22
2022-08-01T02:24:52.912Z,8.60
2022-08-01T02:27:25.142Z,6.38
2022-08-01T02:29:54.109Z,5.70
2022-08-01T02:32:35.572Z,6.47
2022-08-01T02:35:03.341Z,5.65
2022-08-01T02:37:32.177Z,5.03
2022-08-01T02:39:59.364Z,5.80
2022-08-01T02:42:27.369Z,6.20
2022-08-01T02:44:54.947Z,5.25
2022-08-01T02:47:23.183Z,5.63
2022-08-01T02:49:53.248Z,5.75
2022-08-01T02:52:21.175Z,5.30
2022-08-01T02:54:49.620Z,6.10
2022-08-01T02:57:17.025Z,5.13
2022-08-01T02:59:47.096Z,5.40
2022-08-01T03:02:14.551Z,5.43
2022-08-01T03:04:42.432Z,5.07
2022-08-01T03:07:11.379Z,6.38
2022-08-01T03:09:39.694Z,5.40
2022-08-01T03:12:10.332Z,5.95
2022-08-01T03:14:39.093Z,4.70
2022-08-01T03:17:06.146Z,5.40
2022-08-01T03:19:35.589Z,6.20
2022-08-01T03:22:04.890Z,7.43
2022-08-01T03:24:32.120Z,6.03
2022-08-01T03:26:58.699Z,6.15
2022-08-01T03:29:26.488Z,5.47
2022-08-01T03:31:53.496Z,6.00
2022-08-01T03:34:22.635Z,7.45
2022-08-01T03:36:50.842Z,5.30
2022-08-01T03:39:18.441Z,4.80
2022-08-01T03:41:48.095Z,5.22
2022-08-01T03:44:16.751Z,5.53
2022-08-01T03:46:44.633Z,6.25
2022-08-01T03:49:19.521Z,7.13
2022-08-01T03:51:49.204Z,5.70
2022-08-01T03:54:16.823Z,4.40
2022-08-01T03:56:44.253Z,9.10
2022-08-01T03:59:11.160Z,5.75
2022-08-01T04:01:37.818Z,5.38
2022-08-01T04:04:06.857Z,7.28
2022-08-01T04:06:33.423Z,7.10
2022-08-01T04:09:00.051Z,7.45
2022-08-01T04:11:27.156Z,6.78
2022-08-01T04:13:54.319Z,8.02
2022-08-01T04:16:22.140Z,10.27
2022-08-01T04:18:48.710Z,6.90
2022-08-01T04:21:15.370Z,9.38
2022-08-01T04:23:43.731Z,5.78
2022-08-01T04:26:10.794Z,5.57
2022-08-01T04:28:38.080Z,8.35
2022-08-01T04:31:07.262Z,6.53
2022-08-01T04:33:37.500Z,10.20
2022-08-01T04:36:05.653Z,6.35
2022-08-01T04:38:34.485Z,7.82
2022-08-01T04:41:09.515Z,6.75
2022-08-01T04:43:36.843Z,7.22
2022-08-01T04:46:04.836Z,8.73
2022-08-01T04:48:32.731Z,7.40
2022-08-01T04:50:59.321Z,8.45
2022-08-01T04:53:27.065Z,6.15
2022-08-01T04:55:53.502Z,8.45
2022-08-01T04:58:20.097Z,7.03
2022-08-01T05:00:48.068Z,10.05
2022-08-01T05:03:14.823Z,6.63
2022-08-01T05:05:50.314Z,7.55
2022-08-01T05:08:17.516Z,11.05
2022-08-01T05:10:44.164Z,8.50
2022-08-01T05:13:10.754Z,8.27
2022-08-01T05:15:56.200Z,7.22
2022-08-01T05:20:58.939Z,8.07
2022-08-01T05:23:42.147Z,7.23
2022-08-01T05:26:10.615Z,6.57
2022-08-01T05:28:37.005Z,6.40
2022-08-01T05:31:04.883Z,6.50
2022-08-01T05:33:41.605Z,8.25
2022-08-01T05:36:14.654Z,6.40
2022-08-01T05:38:41.247Z,5.80
2022-08-01T05:41:07.763Z,6.32
2022-08-01T05:43:34.146Z,5.95
2022-08-01T05:46:00.670Z,5.93
2022-08-01T05:48:31.200Z,6.18
2022-08-01T05:53:29.321Z,5.70
2022-08-01T05:55:56.154Z,5.65
2022-08-01T05:58:23.217Z,5.45
2022-08-01T06:00:49.783Z,6.40
2022-08-01T06:03:20.025Z,6.40
2022-08-01T06:05:49.317Z,5.82
2022-08-01T06:08:15.816Z,6.07
2022-08-01T06:10:42.625Z,5.30
2022-08-01T06:13:09.746Z,6.75
2022-08-01T06:15:39.883Z,5.65
2022-08-01T06:18:09.578Z,7.22
2022-08-01T06:20:36.132Z,5.95
2022-08-01T06:23:11.343Z,4.38
2022-08-01T06:25:49.694Z,3.50
2022-08-01T06:28:17.889Z,4.90
2022-08-01T06:30:44.853Z,3.83
2022-08-01T06:33:11.246Z,4.60
2022-08-01T06:35:37.812Z,8.10
2022-08-01T06:38:04.576Z,5.65
2022-08-01T06:40:31.065Z,5.10
2022-08-01T06:42:57.628Z,4.50
2022-08-01T06:45:25.958Z,4.30
2022-08-01T06:47:52.425Z,4.95
2022-08-01T06:50:19.076Z,4.00
2022-08-01T06:52:45.588Z,5.28
2022-08-01T06:55:12.313Z,4.10
2022-08-01T06:57:46.422Z,5.47
2022-08-01T07:00:14.533Z,4.20
2022-08-01T07:02:42.073Z,4.88
2022-08-01T07:05:08.818Z,4.20
2022-08-01T07:07:35.215Z,4.45
2022-08-01T07:10:01.604Z,4.60
2022-08-01T07:12:27.988Z,4.93
2022-08-01T07:14:54.380Z,3.97
2022-08-01T07:17:21.678Z,4.03
2022-08-01T07:19:48.246Z,4.68
2022-08-01T07:22:20.999Z,3.30
2022-08-01T07:24:50.077Z,5.20
2022-08-01T07:29:50.843Z,3.67
2022-08-01T07:32:17.281Z,4.25
2022-08-01T07:34:44.674Z,8.25
2022-08-01T07:37:11.072Z,3.33
2022-08-01T07:39:37.417Z,3.22
2022-08-01T07:42:06.342Z,3.50
2022-08-01T07:44:33.421Z,3.60
2022-08-01T07:46:59.973Z,4.60
2022-08-01T07:49:26.595Z,4.65
2022-08-01T07:52:13.279Z,4.22
2022-08-01T07:54:39.611Z,6.18
2022-08-01T07:57:06.044Z,4.90
2022-08-01T07:59:32.614Z,6.13
2022-08-01T08:01:59.226Z,5.22
2022-08-01T08:04:26.284Z,5.68
2022-08-01T08:06:54.361Z,6.03
2022-08-01T08:09:20.845Z,6.00
2022-08-01T08:11:48.272Z,5.22
2022-08-01T08:14:15.436Z,6.40
2022-08-01T08:16:41.836Z,6.03
2022-08-01T08:19:08.193Z,8.52
2022-08-01T08:21:34.610Z,5.20
2022-08-01T08:24:19.960Z,4.20
2022-08-01T08:26:56.662Z,3.63
2022-08-01T08:29:23.603Z,3.72
2022-08-01T08:31:50.790Z,6.50
2022-08-01T08:34:18.062Z,3.90
2022-08-01T08:36:48.077Z,4.35
2022-08-01T08:39:14.714Z,3.72
2022-08-01T08:41:41.178Z,4.22
2022-08-01T08:44:10.434Z,2.58
2022-08-01T08:46:45.034Z,3.03
2022-08-01T08:49:12.280Z,2.40
2022-08-01T08:51:39.824Z,1.52
2022-08-01T08:54:06.900Z,4.45
2022-08-01T08:56:35.352Z,1.70
2022-08-01T08:59:02.992Z,1.85
2022-08-01T09:01:29.489Z,1.98
2022-08-01T09:03:55.905Z,1.88
2022-08-01T09:06:22.308Z,2.95
2022-08-01T09:08:48.741Z,2.92
2022-08-01T09:11:22.506Z,3.53
2022-08-01T09:14:05.360Z,3.33
2022-08-01T09:16:32.531Z,2.95
2022-08-01T09:19:15.896Z,3.53
2022-08-01T09:22:02.102Z,2.67
2022-08-01T09:24:30.759Z,3.45
2022-08-01T09:26:57.621Z,1.80
2022-08-01T09:29:37.257Z,2.03
2022-08-01T09:32:06.120Z,2.75
2022-08-01T09:34:33.984Z,2.42
2022-08-01T09:37:02.163Z,5.50
2022-08-01T09:39:29.854Z,2.95
2022-08-01T09:41:57.255Z,2.22
2022-08-01T09:44:42.847Z,2.08
2022-08-01T09:47:11.749Z,2.85
2022-08-01T09:49:46.239Z,2.88
2022-08-01T09:52:19.284Z,2.47
2022-08-01T09:54:52.742Z,2.95
2022-08-01T09:57:20.392Z,3.75
2022-08-01T09:59:58.299Z,2.40
2022-08-01T10:02:38.870Z,1.73
2022-08-01T10:05:08.436Z,2.35
2022-08-01T10:07:43.939Z,1.77
2022-08-01T10:10:11.994Z,4.05
2022-08-01T10:12:38.693Z,2.22
2022-08-01T10:15:11.708Z,1.40
2022-08-01T10:17:50.621Z,4.60
2022-08-01T10:20:30.568Z,3.33
2022-08-01T10:23:02.204Z,2.67
2022-08-01T10:25:43.082Z,3.25
2022-08-01T10:28:21.513Z,1.67
2022-08-01T10:30:52.172Z,2.70
2022-08-01T10:33:51.392Z,1.60
2022-08-01T10:36:09.707Z,2.88
2022-08-01T10:38:37.201Z,2.92
2022-08-01T10:41:06.596Z,3.25
2022-08-01T10:43:35.346Z,2.42
2022-08-01T10:46:13.808Z,2.63
2022-08-01T10:48:57.962Z,2.50
2022-08-01T10:51:26.876Z,4.32
2022-08-01T10:54:13.371Z,3.08
2022-08-01T10:56:46.003Z,1.83
2022-08-01T10:59:15.614Z,1.45
2022-08-01T11:01:44.914Z,2.75
2022-08-01T11:04:18.427Z,4.80
2022-08-01T11:06:54.327Z,1.50
2022-08-01T11:09:51.962Z,2.85
2022-08-01T11:12:24.654Z,1.90
2022-08-01T11:15:02.862Z,7.43
2022-08-01T11:17:48.996Z,2.03
2022-08-01T11:20:17.362Z,3.60
2022-08-01T11:23:03.214Z,2.70
2022-08-01T11:26:05.653Z,3.25
2022-08-01T11:28:36.556Z,1.92
2022-08-01T11:31:07.649Z,1.38
2022-08-01T11:33:40.833Z,1.55
2022-08-01T11:36:56.903Z,2.88
2022-08-01T11:39:13.354Z,2.58
2022-08-01T11:41:41.221Z,2.88
2022-08-01T11:44:07.860Z,3.03
2022-08-01T11:46:53.709Z,2.42
2022-08-01T11:49:29.313Z,2.58
2022-08-01T11:52:04.663Z,4.65
2022-08-01T11:54:35.632Z,2.20
2022-08-01T11:57:04.812Z,2.65
2022-08-01T11:59:38.296Z,1.83
2022-08-01T12:02:20.323Z,1.42
2022-08-01T12:05:01.689Z,2.20
2022-08-01T12:07:29.579Z,6.85
2022-08-01T12:10:04.298Z,1.83
2022-08-01T12:12:31.067Z,2.05
2022-08-01T12:14:58.929Z,1.80
2022-08-01T12:17:58.438Z,2.15
2022-08-01T12:20:31.586Z,2.22
2022-08-01T12:22:59.688Z,5.05
2022-08-01T12:25:26.058Z,1.58
2022-08-01T12:27:56.246Z,3.08
2022-08-01T12:32:53.429Z,4.35
2022-08-01T12:35:23.833Z,5.03
2022-08-01T12:37:51.949Z,2.15
2022-08-01T12:40:28.775Z,1.73
2022-08-01T12:42:59.623Z,2.58
2022-08-01T12:47:53.861Z,1.50
2022-08-01T12:50:21.774Z,1.33
2022-08-01T12:52:48.724Z,1.20
2022-08-01T12:55:18.577Z,1.00
2022-08-01T12:57:50.968Z,1.17
2022-08-01T13:00:19.025Z,2.60
2022-08-01T13:02:46.476Z,1.88
2022-08-01T13:05:13.200Z,3.25
2022-08-01T13:07:47.579Z,1.30
2022-08-01T13:10:15.215Z,3.00
2022-08-01T13:12:42.282Z,1.55
2022-08-01T13:15:22.865Z,2.47
2022-08-01T13:17:49.309Z,3.13
2022-08-01T13:20:29.383Z,3.00
2022-08-01T13:22:56.141Z,2.80
2022-08-01T13:25:23.939Z,1.67
2022-08-01T13:28:11.670Z,3.42
2022-08-01T13:30:38.140Z,3.92
2022-08-01T13:33:04.784Z,2.38
2022-08-01T13:35:31.296Z,3.33
2022-08-01T13:37:57.800Z,2.95
2022-08-01T13:40:28.484Z,2.70
2022-08-01T13:42:56.645Z,0.77
2022-08-01T13:45:23.623Z,0.82
2022-08-01T13:48:12.043Z,1.02
2022-08-01T13:50:39.528Z,4.95
2022-08-01T13:53:06.379Z,1.27
2022-08-01T13:55:35.240Z,3.95
2022-08-01T13:58:02.098Z,2.75
2022-08-01T14:00:28.479Z,2.10
2022-08-01T14:02:54.959Z,1.40
2022-08-01T14:05:21.362Z,2.15
2022-08-01T14:07:48.698Z,3.90
2022-08-01T14:10:19.756Z,1.13
2022-08-01T14:12:47.737Z,1.92
2022-08-01T14:15:14.507Z,1.67
2022-08-01T14:20:14.546Z,1.52
2022-08-01T14:22:41.584Z,2.28
2022-08-01T14:25:09.025Z,0.82
2022-08-01T14:27:37.221Z,3.28
2022-08-01T14:30:04.427Z,0.93
2022-08-01T14:32:31.009Z,1.15
2022-08-01T14:34:57.942Z,1.55
2022-08-01T14:37:28.786Z,2.55
2022-08-01T14:39:59.405Z,3.92
2022-08-01T14:42:26.204Z,2.78
2022-08-01T14:44:52.587Z,0.82
2022-08-01T14:47:21.964Z,1.17
2022-08-01T14:49:49.037Z,0.70
2022-08-01T14:52:15.502Z,1.95
2022-08-01T14:54:42.027Z,0.43
2022-08-01T14:57:08.423Z,1.10
2022-08-01T14:59:34.941Z,2.38
2022-08-01T15:02:01.445Z,1.70
2022-08-01T15:04:27.962Z,1.60
2022-08-01T15:06:54.601Z,3.00
2022-08-01T15:09:21.045Z,3.60
2022-08-01T15:11:48.191Z,2.88
2022-08-01T15:14:33.578Z,2.25
2022-08-01T15:16:59.966Z,0.52
2022-08-01T15:19:26.411Z,0.95
2022-08-01T15:21:52.956Z,1.38
2022-08-01T15:24:19.347Z,1.15
2022-08-01T15:26:46.009Z,4.10
2022-08-01T15:29:14.408Z,3.33
2022-08-01T15:31:40.888Z,1.92
2022-08-01T15:34:07.355Z,2.10
2022-08-01T15:36:33.758Z,1.90
2022-08-01T15:39:00.274Z,1.45
2022-08-01T15:41:26.635Z,1.75
2022-08-01T15:43:55.869Z,3.97
2022-08-01T15:46:22.766Z,0.80
2022-08-01T15:49:02.827Z,1.75
2022-08-01T15:51:29.265Z,1.60
2022-08-01T15:53:55.826Z,3.38
2022-08-01T15:56:22.211Z,1.42
2022-08-01T15:58:48.783Z,3.05
2022-08-01T16:01:15.361Z,0.90
2022-08-01T16:03:41.817Z,1.05
2022-08-01T16:06:08.486Z,2.08
2022-08-01T16:08:34.998Z,2.85
2022-08-01T16:11:01.411Z,1.58
2022-08-01T16:13:28.010Z,2.35
2022-08-01T16:15:54.414Z,1.65
2022-08-01T16:18:20.790Z,2.88
2022-08-01T16:20:47.165Z,1.98
2022-08-01T16:23:14.889Z,3.85
2022-08-01T16:25:41.392Z,0.63
2022-08-01T16:28:09.145Z,2.88
2022-08-01T16:30:36.376Z,5.32
2022-08-01T16:33:22.541Z,3.83
2022-08-01T16:35:50.106Z,2.97
2022-08-01T16:38:19.295Z,4.13
2022-08-01T16:40:48.430Z,3.90
2022-08-01T16:43:15.432Z,1.17
2022-08-01T16:45:43.207Z,1.77
2022-08-01T16:48:10.284Z,6.75
2022-08-01T16:50:38.809Z,3.42
2022-08-01T16:53:05.409Z,0.88
2022-08-01T16:55:50.567Z,3.22
2022-08-01T16:58:18.973Z,3.53
2022-08-01T17:01:59.394Z,1.42
2022-08-01T17:04:01.581Z,1.58
2022-08-01T17:06:31.410Z,2.83
2022-08-01T17:08:58.756Z,1.02
2022-08-01T17:11:25.464Z,2.75
2022-08-01T17:13:52.428Z,2.97
2022-08-01T17:16:18.900Z,1.88
2022-08-01T17:18:45.408Z,2.42
2022-08-01T17:21:11.770Z,1.35
2022-08-01T17:23:38.578Z,2.97
2022-08-01T17:26:05.276Z,1.27
2022-08-01T17:28:33.978Z,1.35
2022-08-01T17:31:00.474Z,3.33
2022-08-01T17:33:45.370Z,1.80
2022-08-01T17:36:15.164Z,2.70
2022-08-01T17:38:42.127Z,2.20
2022-08-01T17:41:08.893Z,2.45
2022-08-01T17:43:35.319Z,2.35
2022-08-01T17:46:01.754Z,2.95
2022-08-01T17:48:32.902Z,3.50
2022-08-01T17:50:59.539Z,1.15
2022-08-01T17:53:26.075Z,2.42
2022-08-01T17:55:53.764Z,2.67
2022-08-01T17:58:49.870Z,4.40
2022-08-01T18:01:10.683Z,1.65
2022-08-01T18:03:40.823Z,1.23
2022-08-01T18:06:08.198Z,2.78
2022-08-01T18:08:35.380Z,2.00
2022-08-01T18:11:01.848Z,2.58
2022-08-01T18:13:29.213Z,1.67
2022-08-01T18:16:01.108Z,3.45
2022-08-01T18:18:33.093Z,2.75
2022-08-01T18:21:00.870Z,2.72
2022-08-01T18:23:27.240Z,4.22
2022-08-01T18:25:53.944Z,1.83
2022-08-01T18:28:31.379Z,2.80
2022-08-01T18:31:03.647Z,1.60
2022-08-01T18:33:30.403Z,3.65
2022-08-01T18:36:02.009Z,3.50
2022-08-01T18:38:32.111Z,3.22
2022-08-01T18:41:01.094Z,3.53
2022-08-01T18:43:27.981Z,4.05
2022-08-01T18:45:57.272Z,2.53
2022-08-01T18:48:24.054Z,3.75
2022-08-01T18:54:36.565Z,4.10
2022-08-01T18:57:03.190Z,4.53
2022-08-01T18:59:29.790Z,4.32
2022-08-01T19:01:56.329Z,3.88
2022-08-01T19:04:23.188Z,3.03
2022-08-01T19:06:49.799Z,1.95
2022-08-01T19:09:20.721Z,2.97
2022-08-01T19:11:47.642Z,3.35
2022-08-01T19:14:14.121Z,4.80
2022-08-01T19:16:40.623Z,2.80
2022-08-01T19:19:09.708Z,6.47
2022-08-01T19:21:39.311Z,9.60
2022-08-01T19:24:17.335Z,3.55
2022-08-01T19:26:54.071Z,4.40
2022-08-01T19:29:21.937Z,3.22
2022-08-01T19:31:51.981Z,5.07
2022-08-01T19:34:26.669Z,3.33
2022-08-01T19:36:55.283Z,3.88
2022-08-01T19:39:27.257Z,4.00
2022-08-01T19:41:54.894Z,3.75
2022-08-01T19:44:23.558Z,2.22
2022-08-01T19:46:50.550Z,6.97
2022-08-01T19:49:18.738Z,5.88
2022-08-01T19:52:02.089Z,6.35
2022-08-01T19:54:36.089Z,6.43
2022-08-01T19:57:04.979Z,4.40
2022-08-01T19:59:32.793Z,3.60
2022-08-01T20:02:03.107Z,6.90
2022-08-01T20:05:01.051Z,6.05
2022-08-01T20:07:43.598Z,3.35
2022-08-01T20:10:20.663Z,5.47
2022-08-01T20:12:50.790Z,2.95
2022-08-01T20:15:17.412Z,4.78
2022-08-01T20:17:45.549Z,4.43
2022-08-01T20:20:11.988Z,4.15
2022-08-01T20:22:42.209Z,4.07
2022-08-01T20:25:09.769Z,3.60
2022-08-01T20:27:37.863Z,3.13
2022-08-01T20:30:04.848Z,4.72
2022-08-01T20:32:32.204Z,4.88
2022-08-01T20:35:01.799Z,5.22
2022-08-01T20:38:04.199Z,5.53
2022-08-01T20:40:16.351Z,4.25
2022-08-01T20:42:45.231Z,4.63
2022-08-01T20:45:18.096Z,3.08
2022-08-01T20:47:48.448Z,4.80
2022-08-01T20:50:52.781Z,6.45
2022-08-01T20:53:25.577Z,4.45
2022-08-01T20:56:00.643Z,4.15
2022-08-01T20:58:50.256Z,4.05
2022-08-01T21:01:21.215Z,3.53
2022-08-01T21:04:03.396Z,2.38
2022-08-01T21:06:33.732Z,2.50
2022-08-01T21:09:02.410Z,4.18
2022-08-01T21:11:35.496Z,2.83
2022-08-01T21:14:05.740Z,3.08
2022-08-01T21:16:34.339Z,4.57
2022-08-01T21:19:19.200Z,3.75
2022-08-01T21:22:04.820Z,3.58
2022-08-01T21:24:40.886Z,4.05
2022-08-01T21:27:07.614Z,4.95
2022-08-01T21:29:34.378Z,3.28
2022-08-01T21:32:15.461Z,3.85
2022-08-01T21:37:09.418Z,4.10
2022-08-01T21:39:36.771Z,5.93
2022-08-01T21:42:08.312Z,3.85
2022-08-01T21:44:38.310Z,5.10
2022-08-01T21:47:04.822Z,3.25
2022-08-01T21:49:31.401Z,3.97
2022-08-01T21:52:00.293Z,16.45
2022-08-01T21:54:29.778Z,2.97
2022-08-01T21:57:09.962Z,5.88
2022-08-01T21:59:56.390Z,3.28
2022-08-01T22:02:28.451Z,2.97
2022-08-01T22:05:03.294Z,5.75
2022-08-01T22:07:33.582Z,4.00
2022-08-01T22:10:02.658Z,3.08
2022-08-01T22:12:29.589Z,6.38
2022-08-01T22:14:56.286Z,4.30
2022-08-01T22:17:23.856Z,4.03
2022-08-01T22:19:53.737Z,4.00
2022-08-01T22:22:45.182Z,4.47
2022-08-01T22:25:07.736Z,3.28
2022-08-01T22:28:05.844Z,3.72
2022-08-01T22:30:24.204Z,3.33
2022-08-01T22:33:07.202Z,5.10
2022-08-01T22:35:42.853Z,4.72
2022-08-01T22:38:09.861Z,5.85
2022-08-01T22:40:39.373Z,5.10
2022-08-01T22:43:10.787Z,3.78
2022-08-01T22:45:37.273Z,8.90
2022-08-01T22:48:20.361Z,4.15
2022-08-01T22:50:50.862Z,4.95
2022-08-01T22:53:24.301Z,5.70
2022-08-01T22:55:59.510Z,4.03
2022-08-01T22:58:29.151Z,3.17
2022-08-01T23:00:56.197Z,5.38
2022-08-01T23:03:36.158Z,5.55
2022-08-01T23:06:04.892Z,4.07
2022-08-01T23:08:34.710Z,3.58
2022-08-01T23:11:03.805Z,3.42
2022-08-01T23:13:33.160Z,6.38
2022-08-01T23:16:00.550Z,6.70
2022-08-01T23:18:27.759Z,5.50
2022-08-01T23:20:58.316Z,4.72
2022-08-01T23:23:31.090Z,4.25
2022-08-01T23:25:58.546Z,5.38
2022-08-01T23:28:25.788Z,4.13
2022-08-01T23:30:52.624Z,4.05
2022-08-01T23:33:21.988Z,3.65
2022-08-01T23:35:48.425Z,4.30
2022-08-01T23:38:16.038Z,6.05
2022-08-01T23:40:42.873Z,4.63
2022-08-01T23:43:16.131Z,3.92
2022-08-01T23:46:02.091Z,5.70
2022-08-01T23:48:29.543Z,4.80
2022-08-01T23:50:56.008Z,3.63
2022-08-01T23:53:24.075Z,5.38
2022-08-01T23:55:57.294Z,5.47
2022-08-01T23:58:24.033Z,4.28
